sensor_id;sensor_type;location;lat;lon;timestamp;pressure;altitude;pressure_sealevel;temperature;humidity
45040;BME280;30778;53.574;7.770;2023-01-24T00:00:10;104046.78;;;1.69;50.24
45040;BME280;30778;53.574;7.770;2023-01-24T00:02:36;104039.50;;;1.78;49.92
45040;BME280;30778;53.574;7.770;2023-01-24T00:05:03;104039.72;;;1.65;50.17
45040;BME280;30778;53.574;7.770;2023-01-24T00:07:29;104034.84;;;1.71;50.29
45040;BME280;30778;53.574;7.770;2023-01-24T00:09:54;104036.63;;;1.72;50.24
45040;BME280;30778;53.574;7.770;2023-01-24T00:12:19;104037.44;;;1.71;50.32
45040;BME280;30778;53.574;7.770;2023-01-24T00:14:45;104034.13;;;1.73;50.51
45040;BME280;30778;53.574;7.770;2023-01-24T00:17:10;104028.22;;;1.76;50.43
45040;BME280;30778;53.574;7.770;2023-01-24T00:19:36;104032.13;;;1.68;50.28
45040;BME280;30778;53.574;7.770;2023-01-24T00:22:03;104020.69;;;1.63;50.84
45040;BME280;30778;53.574;7.770;2023-01-24T00:24:28;104022.19;;;1.58;50.72
45040;BME280;30778;53.574;7.770;2023-01-24T00:26:55;104022.63;;;1.67;50.39
45040;BME280;30778;53.574;7.770;2023-01-24T00:29:20;104020.09;;;1.68;51.02
45040;BME280;30778;53.574;7.770;2023-01-24T00:31:46;104026.16;;;1.69;50.57
45040;BME280;30778;53.574;7.770;2023-01-24T00:34:11;104018.56;;;1.72;50.84
45040;BME280;30778;53.574;7.770;2023-01-24T00:36:37;104011.56;;;1.69;51.21
45040;BME280;30778;53.574;7.770;2023-01-24T00:39:03;104009.78;;;1.68;51.08
45040;BME280;30778;53.574;7.770;2023-01-24T00:41:28;104013.47;;;1.73;50.86
45040;BME280;30778;53.574;7.770;2023-01-24T00:43:54;104015.97;;;1.72;50.78
45040;BME280;30778;53.574;7.770;2023-01-24T00:46:19;104010.81;;;1.72;50.68
45040;BME280;30778;53.574;7.770;2023-01-24T00:48:47;104005.38;;;1.66;50.98
45040;BME280;30778;53.574;7.770;2023-01-24T00:51:13;104008.63;;;1.62;50.89
45040;BME280;30778;53.574;7.770;2023-01-24T00:53:38;104011.34;;;1.65;51.14
45040;BME280;30778;53.574;7.770;2023-01-24T00:56:04;104000.00;;;1.61;51.02
45040;BME280;30778;53.574;7.770;2023-01-24T00:58:31;104005.44;;;1.67;50.86
45040;BME280;30778;53.574;7.770;2023-01-24T01:00:57;104000.38;;;1.69;51.02
45040;BME280;30778;53.574;7.770;2023-01-24T01:03:25;103998.06;;;1.75;50.53
45040;BME280;30778;53.574;7.770;2023-01-24T01:06:02;103995.22;;;1.69;50.70
45040;BME280;30778;53.574;7.770;2023-01-24T01:08:28;103988.00;;;1.62;51.17
45040;BME280;30778;53.574;7.770;2023-01-24T01:10:53;103997.56;;;1.64;50.96
45040;BME280;30778;53.574;7.770;2023-01-24T01:13:19;103991.38;;;1.61;51.01
45040;BME280;30778;53.574;7.770;2023-01-24T01:15:44;103995.88;;;1.65;51.29
45040;BME280;30778;53.574;7.770;2023-01-24T01:18:10;103998.81;;;1.55;51.43
45040;BME280;30778;53.574;7.770;2023-01-24T01:20:35;103993.00;;;1.59;51.43
45040;BME280;30778;53.574;7.770;2023-01-24T01:23:01;103993.97;;;1.61;51.61
45040;BME280;30778;53.574;7.770;2023-01-24T01:25:26;103994.19;;;1.65;51.46
45040;BME280;30778;53.574;7.770;2023-01-24T01:27:52;104000.38;;;1.69;51.21
45040;BME280;30778;53.574;7.770;2023-01-24T01:30:18;104002.44;;;1.76;51.43
45040;BME280;30778;53.574;7.770;2023-01-24T01:32:43;104001.47;;;1.74;51.24
45040;BME280;30778;53.574;7.770;2023-01-24T01:35:09;104007.59;;;1.76;51.23
45040;BME280;30778;53.574;7.770;2023-01-24T01:37:35;103999.53;;;1.70;50.93
45040;BME280;30778;53.574;7.770;2023-01-24T01:40:01;104003.75;;;1.68;51.18
45040;BME280;30778;53.574;7.770;2023-01-24T01:42:41;104001.38;;;1.72;51.20
45040;BME280;30778;53.574;7.770;2023-01-24T01:50:43;104013.31;;;1.70;51.28
45040;BME280;30778;53.574;7.770;2023-01-24T01:53:11;104005.78;;;1.75;51.26
45040;BME280;30778;53.574;7.770;2023-01-24T01:55:40;104010.03;;;1.73;51.40
45040;BME280;30778;53.574;7.770;2023-01-24T01:58:08;104008.63;;;1.80;51.14
45040;BME280;30778;53.574;7.770;2023-01-24T02:00:34;104006.84;;;1.79;51.05
45040;BME280;30778;53.574;7.770;2023-01-24T02:03:09;104007.72;;;1.79;51.33
45040;BME280;30778;53.574;7.770;2023-01-24T02:05:55;104007.66;;;1.78;51.07
45040;BME280;30778;53.574;7.770;2023-01-24T02:08:22;104009.34;;;1.77;51.56
45040;BME280;30778;53.574;7.770;2023-01-24T02:10:51;104015.31;;;1.76;51.28
45040;BME280;30778;53.574;7.770;2023-01-24T02:13:39;104002.72;;;1.82;51.06
45040;BME280;30778;53.574;7.770;2023-01-24T02:16:10;104005.22;;;1.81;51.18
45040;BME280;30778;53.574;7.770;2023-01-24T02:18:39;104005.44;;;1.85;51.24
45040;BME280;30778;53.574;7.770;2023-01-24T02:21:11;104003.50;;;1.81;51.08
45040;BME280;30778;53.574;7.770;2023-01-24T02:28:54;104004.25;;;1.79;51.49
45040;BME280;30778;53.574;7.770;2023-01-24T02:31:21;104009.50;;;1.80;51.34
45040;BME280;30778;53.574;7.770;2023-01-24T02:33:46;104004.47;;;1.83;51.31
45040;BME280;30778;53.574;7.770;2023-01-24T02:36:28;104008.84;;;1.84;51.37
45040;BME280;30778;53.574;7.770;2023-01-24T02:39:00;104009.78;;;1.86;51.24
45040;BME280;30778;53.574;7.770;2023-01-24T02:41:45;104009.31;;;1.95;51.32
45040;BME280;30778;53.574;7.770;2023-01-24T02:44:21;104011.97;;;1.97;50.89
45040;BME280;30778;53.574;7.770;2023-01-24T02:46:48;104008.59;;;1.98;51.03
45040;BME280;30778;53.574;7.770;2023-01-24T02:49:13;104010.00;;;1.91;51.02
45040;BME280;30778;53.574;7.770;2023-01-24T02:51:39;104002.50;;;1.78;51.29
45040;BME280;30778;53.574;7.770;2023-01-24T02:54:23;104008.31;;;1.73;51.51
45040;BME280;30778;53.574;7.770;2023-01-24T02:56:48;103999.97;;;1.79;51.43
45040;BME280;30778;53.574;7.770;2023-01-24T02:59:33;104004.88;;;1.73;51.57
45040;BME280;30778;53.574;7.770;2023-01-24T03:01:58;104000.50;;;1.72;51.74
45040;BME280;30778;53.574;7.770;2023-01-24T03:04:24;103995.66;;;1.78;51.78
45040;BME280;30778;53.574;7.770;2023-01-24T03:06:49;103998.34;;;1.81;51.34
45040;BME280;30778;53.574;7.770;2023-01-24T03:09:16;104004.34;;;1.80;51.43
45040;BME280;30778;53.574;7.770;2023-01-24T03:11:46;103998.75;;;1.71;51.21
45040;BME280;30778;53.574;7.770;2023-01-24T03:14:13;104000.63;;;1.75;51.41
45040;BME280;30778;53.574;7.770;2023-01-24T03:16:58;103999.75;;;1.75;51.28
45040;BME280;30778;53.574;7.770;2023-01-24T03:19:43;104000.13;;;1.82;51.26
45040;BME280;30778;53.574;7.770;2023-01-24T03:22:27;104003.34;;;1.96;51.07
45040;BME280;30778;53.574;7.770;2023-01-24T03:25:11;104004.09;;;1.93;50.63
45040;BME280;30778;53.574;7.770;2023-01-24T03:28:02;103996.91;;;1.86;50.55
45040;BME280;30778;53.574;7.770;2023-01-24T03:30:46;104007.59;;;1.76;50.74
45040;BME280;30778;53.574;7.770;2023-01-24T03:33:32;104009.63;;;1.83;50.84
45040;BME280;30778;53.574;7.770;2023-01-24T03:36:17;104003.59;;;1.83;50.48
45040;BME280;30778;53.574;7.770;2023-01-24T03:38:47;104009.28;;;1.76;50.98
45040;BME280;30778;53.574;7.770;2023-01-24T03:41:31;104016.06;;;1.73;51.21
45040;BME280;30778;53.574;7.770;2023-01-24T03:43:56;104012.75;;;1.76;50.83
45040;BME280;30778;53.574;7.770;2023-01-24T03:46:22;104008.78;;;1.65;50.74
45040;BME280;30778;53.574;7.770;2023-01-24T03:48:49;104015.53;;;1.63;51.07
45040;BME280;30778;53.574;7.770;2023-01-24T03:51:16;104021.13;;;1.72;50.61
45040;BME280;30778;53.574;7.770;2023-01-24T03:54:00;104011.69;;;1.72;50.83
45040;BME280;30778;53.574;7.770;2023-01-24T03:56:33;104020.59;;;1.79;50.50
45040;BME280;30778;53.574;7.770;2023-01-24T03:59:00;104025.56;;;1.75;50.63
45040;BME280;30778;53.574;7.770;2023-01-24T04:01:28;104022.19;;;1.76;50.76
45040;BME280;30778;53.574;7.770;2023-01-24T04:04:06;104015.91;;;1.70;50.68
45040;BME280;30778;53.574;7.770;2023-01-24T04:06:33;104014.50;;;1.77;50.56
45040;BME280;30778;53.574;7.770;2023-01-24T04:09:00;104019.38;;;1.71;50.72
45040;BME280;30778;53.574;7.770;2023-01-24T04:11:26;104018.47;;;1.70;50.78
45040;BME280;30778;53.574;7.770;2023-01-24T04:14:04;104030.50;;;1.70;50.92
45040;BME280;30778;53.574;7.770;2023-01-24T04:16:33;104034.84;;;1.71;50.79
45040;BME280;30778;53.574;7.770;2023-01-24T04:19:16;104023.81;;;1.73;50.54
45040;BME280;30778;53.574;7.770;2023-01-24T04:21:41;104024.09;;;1.62;50.77
45040;BME280;30778;53.574;7.770;2023-01-24T04:24:09;104025.13;;;1.65;51.09
45040;BME280;30778;53.574;7.770;2023-01-24T04:26:37;104028.56;;;1.66;51.05
45040;BME280;30778;53.574;7.770;2023-01-24T04:29:06;104030.28;;;1.65;51.12
45040;BME280;30778;53.574;7.770;2023-01-24T04:31:31;104028.78;;;1.70;50.87
45040;BME280;30778;53.574;7.770;2023-01-24T04:34:15;104022.91;;;1.73;51.06
45040;BME280;30778;53.574;7.770;2023-01-24T04:36:41;104028.88;;;1.72;50.87
45040;BME280;30778;53.574;7.770;2023-01-24T04:39:08;104025.41;;;1.71;50.83
45040;BME280;30778;53.574;7.770;2023-01-24T04:41:42;104021.97;;;1.71;49.91
45040;BME280;30778;53.574;7.770;2023-01-24T04:44:08;104016.72;;;1.69;50.42
45040;BME280;30778;53.574;7.770;2023-01-24T04:46:34;104014.34;;;1.74;50.37
45040;BME280;30778;53.574;7.770;2023-01-24T04:48:59;104010.94;;;1.75;49.55
45040;BME280;30778;53.574;7.770;2023-01-24T04:51:35;104007.06;;;1.65;49.27
45040;BME280;30778;53.574;7.770;2023-01-24T04:54:04;104012.34;;;1.68;48.83
45040;BME280;30778;53.574;7.770;2023-01-24T04:56:30;104017.28;;;1.82;48.30
45040;BME280;30778;53.574;7.770;2023-01-24T04:58:57;104014.00;;;1.84;48.12
45040;BME280;30778;53.574;7.770;2023-01-24T05:01:22;104009.50;;;1.80;47.67
45040;BME280;30778;53.574;7.770;2023-01-24T05:03:54;104013.91;;;1.83;47.40
45040;BME280;30778;53.574;7.770;2023-01-24T05:06:29;104014.78;;;1.83;47.83
45040;BME280;30778;53.574;7.770;2023-01-24T05:08:56;104016.41;;;1.81;47.75
45040;BME280;30778;53.574;7.770;2023-01-24T05:11:27;104019.66;;;1.77;48.15
45040;BME280;30778;53.574;7.770;2023-01-24T05:13:56;104027.38;;;1.77;47.91
45040;BME280;30778;53.574;7.770;2023-01-24T05:16:22;104023.28;;;1.81;47.32
45040;BME280;30778;53.574;7.770;2023-01-24T05:18:48;104031.53;;;1.73;47.66
45040;BME280;30778;53.574;7.770;2023-01-24T05:21:15;104021.28;;;1.75;47.67
45040;BME280;30778;53.574;7.770;2023-01-24T05:23:43;104024.97;;;1.80;47.60
45040;BME280;30778;53.574;7.770;2023-01-24T05:26:12;104025.72;;;1.78;47.25
45040;BME280;30778;53.574;7.770;2023-01-24T05:28:39;104023.81;;;1.73;47.57
45040;BME280;30778;53.574;7.770;2023-01-24T05:31:05;104021.44;;;1.78;47.57
45040;BME280;30778;53.574;7.770;2023-01-24T05:33:35;104017.50;;;1.68;46.99
45040;BME280;30778;53.574;7.770;2023-01-24T05:36:10;104019.16;;;1.66;47.29
45040;BME280;30778;53.574;7.770;2023-01-24T05:38:37;104024.38;;;1.68;47.35
45040;BME280;30778;53.574;7.770;2023-01-24T05:41:06;104028.78;;;1.70;46.92
45040;BME280;30778;53.574;7.770;2023-01-24T05:43:33;104027.03;;;1.69;47.13
45040;BME280;30778;53.574;7.770;2023-01-24T05:46:00;104032.41;;;1.74;46.54
45040;BME280;30778;53.574;7.770;2023-01-24T05:48:27;104032.19;;;1.69;47.09
45040;BME280;30778;53.574;7.770;2023-01-24T05:51:02;104035.44;;;1.65;47.14
45040;BME280;30778;53.574;7.770;2023-01-24T05:53:29;104024.91;;;1.61;47.24
45040;BME280;30778;53.574;7.770;2023-01-24T05:55:59;104026.16;;;1.69;47.46
45040;BME280;30778;53.574;7.770;2023-01-24T05:58:26;104031.16;;;1.66;47.53
45040;BME280;30778;53.574;7.770;2023-01-24T06:01:11;104026.44;;;1.75;47.25
45040;BME280;30778;53.574;7.770;2023-01-24T06:03:41;104019.59;;;1.76;47.34
45040;BME280;30778;53.574;7.770;2023-01-24T06:06:08;104023.38;;;1.64;46.96
45040;BME280;30778;53.574;7.770;2023-01-24T06:08:35;104023.94;;;1.59;47.09
45040;BME280;30778;53.574;7.770;2023-01-24T06:11:04;104022.31;;;1.61;47.11
45040;BME280;30778;53.574;7.770;2023-01-24T06:13:31;104026.16;;;1.69;46.74
45040;BME280;30778;53.574;7.770;2023-01-24T06:16:02;104028.44;;;1.63;46.98
45040;BME280;30778;53.574;7.770;2023-01-24T06:18:29;104023.94;;;1.41;47.30
45040;BME280;30778;53.574;7.770;2023-01-24T06:20:55;104031.16;;;1.66;47.02
45040;BME280;30778;53.574;7.770;2023-01-24T06:23:26;104027.78;;;1.67;46.42
45040;BME280;30778;53.574;7.770;2023-01-24T06:25:57;104028.22;;;1.76;46.35
45040;BME280;30778;53.574;7.770;2023-01-24T06:28:24;104030.34;;;1.67;46.40
45040;BME280;30778;53.574;7.770;2023-01-24T06:30:59;104037.22;;;1.66;46.48
45040;BME280;30778;53.574;7.770;2023-01-24T06:33:53;104037.72;;;1.59;46.52
45040;BME280;30778;53.574;7.770;2023-01-24T06:36:40;104038.88;;;1.66;46.84
45040;BME280;30778;53.574;7.770;2023-01-24T06:39:12;104039.78;;;1.66;46.53
45040;BME280;30778;53.574;7.770;2023-01-24T06:41:39;104038.00;;;1.65;46.64
45040;BME280;30778;53.574;7.770;2023-01-24T06:44:05;104045.22;;;1.55;46.94
45040;BME280;30778;53.574;7.770;2023-01-24T06:46:32;104047.06;;;1.57;46.78
45040;BME280;30778;53.574;7.770;2023-01-24T06:48:58;104054.25;;;1.28;47.24
45040;BME280;30778;53.574;7.770;2023-01-24T06:51:23;104050.91;;;1.47;46.71
45040;BME280;30778;53.574;7.770;2023-01-24T06:53:48;104057.16;;;1.52;46.62
45040;BME280;30778;53.574;7.770;2023-01-24T06:56:14;104059.59;;;1.49;46.73
45040;BME280;30778;53.574;7.770;2023-01-24T06:58:39;104065.06;;;1.39;47.09
45040;BME280;30778;53.574;7.770;2023-01-24T07:01:05;104064.59;;;1.46;46.49
45040;BME280;30778;53.574;7.770;2023-01-24T07:03:31;104055.69;;;1.58;46.03
45040;BME280;30778;53.574;7.770;2023-01-24T07:05:57;104063.56;;;1.61;46.10
45040;BME280;30778;53.574;7.770;2023-01-24T07:08:22;104066.25;;;1.62;46.10
45040;BME280;30778;53.574;7.770;2023-01-24T07:10:48;104062.25;;;1.51;46.19
45040;BME280;30778;53.574;7.770;2023-01-24T07:13:14;104065.72;;;1.51;46.27
45040;BME280;30778;53.574;7.770;2023-01-24T07:15:40;104067.56;;;1.54;46.17
45040;BME280;30778;53.574;7.770;2023-01-24T07:18:12;104073.00;;;1.60;45.96
45040;BME280;30778;53.574;7.770;2023-01-24T07:20:39;104073.88;;;1.61;46.03
45040;BME280;30778;53.574;7.770;2023-01-24T07:23:07;104067.69;;;1.57;46.52
45040;BME280;30778;53.574;7.770;2023-01-24T07:25:38;104073.09;;;1.62;46.47
45040;BME280;30778;53.574;7.770;2023-01-24T07:28:04;104071.00;;;1.55;46.78
45040;BME280;30778;53.574;7.770;2023-01-24T07:30:30;104058.41;;;1.61;46.37
45040;BME280;30778;53.574;7.770;2023-01-24T07:32:55;104064.88;;;1.52;46.95
45040;BME280;30778;53.574;7.770;2023-01-24T07:35:21;104074.97;;;1.48;47.02
45040;BME280;30778;53.574;7.770;2023-01-24T07:37:46;104089.97;;;1.55;46.74
45040;BME280;30778;53.574;7.770;2023-01-24T07:40:12;104079.69;;;1.57;47.03
45040;BME280;30778;53.574;7.770;2023-01-24T07:42:39;104085.50;;;1.52;47.15
45040;BME280;30778;53.574;7.770;2023-01-24T07:45:06;104084.50;;;1.49;46.97
45040;BME280;30778;53.574;7.770;2023-01-24T07:47:32;104080.09;;;1.14;47.33
45040;BME280;30778;53.574;7.770;2023-01-24T07:49:57;104091.50;;;1.51;46.61
45040;BME280;30778;53.574;7.770;2023-01-24T07:52:23;104093.72;;;1.62;46.05
45040;BME280;30778;53.574;7.770;2023-01-24T07:54:49;104093.88;;;1.65;45.93
45040;BME280;30778;53.574;7.770;2023-01-24T07:57:15;104096.53;;;1.66;46.16
45040;BME280;30778;53.574;7.770;2023-01-24T07:59:41;104095.91;;;1.54;46.31
45040;BME280;30778;53.574;7.770;2023-01-24T08:02:10;104096.88;;;1.56;46.46
45040;BME280;30778;53.574;7.770;2023-01-24T08:04:37;104100.97;;;1.52;46.32
45040;BME280;30778;53.574;7.770;2023-01-24T08:07:02;104100.31;;;1.57;46.31
45040;BME280;30778;53.574;7.770;2023-01-24T08:09:44;104099.69;;;1.61;46.16
45040;BME280;30778;53.574;7.770;2023-01-24T08:12:10;104102.53;;;1.32;46.51
45040;BME280;30778;53.574;7.770;2023-01-24T08:14:36;104108.44;;;1.46;46.53
45040;BME280;30778;53.574;7.770;2023-01-24T08:17:02;104117.28;;;1.51;46.20
45040;BME280;30778;53.574;7.770;2023-01-24T08:19:27;104111.00;;;1.46;46.57
45040;BME280;30778;53.574;7.770;2023-01-24T08:21:53;104114.38;;;1.45;46.18
45040;BME280;30778;53.574;7.770;2023-01-24T08:24:18;104122.50;;;1.53;45.55
45040;BME280;30778;53.574;7.770;2023-01-24T08:26:43;104119.66;;;1.65;45.72
45040;BME280;30778;53.574;7.770;2023-01-24T08:29:12;104123.84;;;1.63;45.99
45040;BME280;30778;53.574;7.770;2023-01-24T08:31:37;104131.22;;;1.55;45.66
45040;BME280;30778;53.574;7.770;2023-01-24T08:34:03;104120.72;;;1.52;46.14
45040;BME280;30778;53.574;7.770;2023-01-24T08:36:28;104127.25;;;1.62;45.90
45040;BME280;30778;53.574;7.770;2023-01-24T08:38:54;104128.84;;;1.60;45.66
45040;BME280;30778;53.574;7.770;2023-01-24T08:41:19;104128.84;;;1.60;46.05
45040;BME280;30778;53.574;7.770;2023-01-24T08:43:45;104130.09;;;1.68;46.20
45040;BME280;30778;53.574;7.770;2023-01-24T08:46:10;104122.38;;;1.68;46.04
45040;BME280;30778;53.574;7.770;2023-01-24T08:48:36;104129.41;;;1.54;46.40
45040;BME280;30778;53.574;7.770;2023-01-24T08:51:05;104134.03;;;1.43;46.43
45040;BME280;30778;53.574;7.770;2023-01-24T08:53:32;104129.09;;;1.48;45.90
45040;BME280;30778;53.574;7.770;2023-01-24T08:55:57;104126.94;;;1.56;45.62
45040;BME280;30778;53.574;7.770;2023-01-24T08:58:22;104127.94;;;1.59;45.81
45040;BME280;30778;53.574;7.770;2023-01-24T09:00:48;104133.84;;;1.57;45.91
45040;BME280;30778;53.574;7.770;2023-01-24T09:03:16;104133.31;;;1.46;46.07
45040;BME280;30778;53.574;7.770;2023-01-24T09:05:42;104123.94;;;1.64;45.90
45040;BME280;30778;53.574;7.770;2023-01-24T09:08:08;104132.56;;;1.32;46.25
45040;BME280;30778;53.574;7.770;2023-01-24T09:10:33;104130.16;;;1.51;45.95
45040;BME280;30778;53.574;7.770;2023-01-24T09:13:00;104127.34;;;1.47;45.87
45040;BME280;30778;53.574;7.770;2023-01-24T09:15:25;104122.56;;;1.55;45.39
45040;BME280;30778;53.574;7.770;2023-01-24T09:17:51;104133.09;;;1.59;45.50
45040;BME280;30778;53.574;7.770;2023-01-24T09:20:16;104124.16;;;1.69;45.74
45040;BME280;30778;53.574;7.770;2023-01-24T09:22:42;104127.03;;;1.41;45.85
45040;BME280;30778;53.574;7.770;2023-01-24T09:25:08;104126.09;;;1.57;45.63
45040;BME280;30778;53.574;7.770;2023-01-24T09:27:34;104128.38;;;1.50;45.39
45040;BME280;30778;53.574;7.770;2023-01-24T09:30:00;104122.75;;;1.58;45.75
45040;BME280;30778;53.574;7.770;2023-01-24T09:32:26;104128.91;;;1.61;45.62
45040;BME280;30778;53.574;7.770;2023-01-24T09:34:51;104130.31;;;1.72;45.56
45040;BME280;30778;53.574;7.770;2023-01-24T09:37:20;104121.72;;;1.72;44.93
45040;BME280;30778;53.574;7.770;2023-01-24T09:39:46;104116.41;;;1.69;45.35
45040;BME280;30778;53.574;7.770;2023-01-24T09:42:29;104124.44;;;1.75;45.28
45040;BME280;30778;53.574;7.770;2023-01-24T09:45:21;104122.03;;;1.78;45.60
45040;BME280;30778;53.574;7.770;2023-01-24T09:48:03;104115.28;;;1.82;45.17
45040;BME280;30778;53.574;7.770;2023-01-24T09:50:36;104122.56;;;1.89;44.97
45040;BME280;30778;53.574;7.770;2023-01-24T09:53:03;104127.94;;;1.59;46.11
45040;BME280;30778;53.574;7.770;2023-01-24T09:55:35;104126.28;;;1.60;45.83
45040;BME280;30778;53.574;7.770;2023-01-24T09:58:05;104118.22;;;1.54;45.91
45040;BME280;30778;53.574;7.770;2023-01-24T10:00:36;104122.22;;;1.65;44.60
45040;BME280;30778;53.574;7.770;2023-01-24T10:03:04;104111.78;;;1.62;44.78
45040;BME280;30778;53.574;7.770;2023-01-24T10:05:47;104104.28;;;1.84;44.56
45040;BME280;30778;53.574;7.770;2023-01-24T10:08:20;104111.16;;;1.67;44.42
45040;BME280;30778;53.574;7.770;2023-01-24T10:10:53;104105.38;;;1.89;44.39
45040;BME280;30778;53.574;7.770;2023-01-24T10:16:18;104111.63;;;1.77;44.66
45040;BME280;30778;53.574;7.770;2023-01-24T10:19:10;104106.00;;;1.67;44.79
45040;BME280;30778;53.574;7.770;2023-01-24T10:21:53;104102.03;;;1.74;44.21
45040;BME280;30778;53.574;7.770;2023-01-24T10:24:30;104098.38;;;1.69;44.69
45040;BME280;30778;53.574;7.770;2023-01-24T10:26:56;104098.19;;;1.66;44.74
45040;BME280;30778;53.574;7.770;2023-01-24T10:29:27;104094.16;;;1.89;44.35
45040;BME280;30778;53.574;7.770;2023-01-24T10:32:00;104110.13;;;1.82;44.34
45040;BME280;30778;53.574;7.770;2023-01-24T10:39:45;104109.41;;;1.48;45.51
45040;BME280;30778;53.574;7.770;2023-01-24T10:42:24;104103.53;;;1.69;45.45
45040;BME280;30778;53.574;7.770;2023-01-24T10:44:50;104111.31;;;1.70;44.71
45040;BME280;30778;53.574;7.770;2023-01-24T10:49:57;104109.44;;;1.84;44.48
45040;BME280;30778;53.574;7.770;2023-01-24T10:52:24;104105.78;;;1.63;44.83
45040;BME280;30778;53.574;7.770;2023-01-24T10:54:53;104102.03;;;1.56;44.94
45040;BME280;30778;53.574;7.770;2023-01-24T10:57:30;104101.72;;;1.68;44.79
45040;BME280;30778;53.574;7.770;2023-01-24T11:02:38;104094.44;;;1.59;44.41
45040;BME280;30778;53.574;7.770;2023-01-24T11:05:06;104094.81;;;1.67;44.80
45040;BME280;30778;53.574;7.770;2023-01-24T11:07:34;104090.97;;;1.59;44.61
45040;BME280;30778;53.574;7.770;2023-01-24T11:12:55;104098.72;;;1.94;44.23
45040;BME280;30778;53.574;7.770;2023-01-24T11:15:32;104103.16;;;1.79;43.92
45040;BME280;30778;53.574;7.770;2023-01-24T11:18:14;104096.16;;;1.94;44.18
45040;BME280;30778;53.574;7.770;2023-01-24T11:20:41;104097.41;;;2.03;44.00
45040;BME280;30778;53.574;7.770;2023-01-24T11:23:16;104094.00;;;2.04;43.68
45040;BME280;30778;53.574;7.770;2023-01-24T11:25:52;104094.09;;;2.05;43.99
45040;BME280;30778;53.574;7.770;2023-01-24T11:28:31;104095.78;;;2.05;43.67
45040;BME280;30778;53.574;7.770;2023-01-24T11:31:05;104090.03;;;1.92;44.17
45040;BME280;30778;53.574;7.770;2023-01-24T11:48:22;104086.34;;;1.51;44.78
45040;BME280;30778;53.574;7.770;2023-01-24T11:50:59;104079.91;;;1.61;44.33
45040;BME280;30778;53.574;7.770;2023-01-24T11:56:28;104067.94;;;1.98;43.10
45040;BME280;30778;53.574;7.770;2023-01-24T12:01:53;104065.34;;;1.98;43.56
45040;BME280;30778;53.574;7.770;2023-01-24T12:09:52;104063.44;;;1.93;43.70
45040;BME280;30778;53.574;7.770;2023-01-24T12:15:08;104059.28;;;1.79;43.26
45040;BME280;30778;53.574;7.770;2023-01-24T12:22:46;104052.69;;;1.66;43.92
45040;BME280;30778;53.574;7.770;2023-01-24T12:25:24;104050.59;;;1.59;44.33
45040;BME280;30778;53.574;7.770;2023-01-24T12:27:55;104046.47;;;1.45;43.73
45040;BME280;30778;53.574;7.770;2023-01-24T12:30:37;104048.53;;;1.70;43.48
45040;BME280;30778;53.574;7.770;2023-01-24T12:33:13;104045.22;;;1.55;43.34
45040;BME280;30778;53.574;7.770;2023-01-24T12:35:45;104042.28;;;1.65;43.51
45040;BME280;30778;53.574;7.770;2023-01-24T12:38:23;104035.28;;;1.62;43.46
45040;BME280;30778;53.574;7.770;2023-01-24T12:41:06;104030.88;;;1.60;43.48
45040;BME280;30778;53.574;7.770;2023-01-24T12:48:40;104013.63;;;1.77;43.58
45040;BME280;30778;53.574;7.770;2023-01-24T12:54:04;104008.97;;;1.87;43.43
45040;BME280;30778;53.574;7.770;2023-01-24T12:59:25;103997.25;;;1.94;42.97
45040;BME280;30778;53.574;7.770;2023-01-24T13:02:06;103988.88;;;1.80;43.02
45040;BME280;30778;53.574;7.770;2023-01-24T13:10:12;103983.56;;;1.59;43.70
45040;BME280;30778;53.574;7.770;2023-01-24T13:12:43;103973.69;;;1.50;43.33
45040;BME280;30778;53.574;7.770;2023-01-24T13:15:40;103978.69;;;1.83;43.35
45040;BME280;30778;53.574;7.770;2023-01-24T13:31:46;103976.19;;;1.31;44.73
45040;BME280;30778;53.574;7.770;2023-01-24T13:34:19;103982.22;;;1.31;44.22
45040;BME280;30778;53.574;7.770;2023-01-24T13:36:48;103981.50;;;1.52;44.46
45040;BME280;30778;53.574;7.770;2023-01-24T13:39:31;103971.38;;;1.55;43.88
45040;BME280;30778;53.574;7.770;2023-01-24T13:44:38;103984.78;;;1.14;45.26
45040;BME280;30778;53.574;7.770;2023-01-24T13:50:02;103980.78;;;1.02;45.50
45040;BME280;30778;53.574;7.770;2023-01-24T13:52:37;103972.47;;;1.42;43.84
45040;BME280;30778;53.574;7.770;2023-01-24T14:00:48;103977.19;;;1.35;44.55
45040;BME280;30778;53.574;7.770;2023-01-24T14:03:20;103972.97;;;1.35;44.42
45040;BME280;30778;53.574;7.770;2023-01-24T14:06:07;103976.22;;;1.15;45.01
45040;BME280;30778;53.574;7.770;2023-01-24T14:08:43;103976.25;;;1.32;44.44
45040;BME280;30778;53.574;7.770;2023-01-24T14:11:18;103969.00;;;1.42;44.18
45040;BME280;30778;53.574;7.770;2023-01-24T14:18:59;103980.66;;;0.83;46.12
45040;BME280;30778;53.574;7.770;2023-01-24T14:21:52;103983.00;;;1.13;45.18
45040;BME280;30778;53.574;7.770;2023-01-24T14:26:52;103972.56;;;1.27;45.12
45040;BME280;30778;53.574;7.770;2023-01-24T14:29:18;103970.59;;;1.40;44.98
45040;BME280;30778;53.574;7.770;2023-01-24T14:31:46;103975.91;;;1.43;44.83
45040;BME280;30778;53.574;7.770;2023-01-24T14:34:27;103978.34;;;1.40;45.07
45040;BME280;30778;53.574;7.770;2023-01-24T14:37:02;103968.47;;;1.31;45.72
45040;BME280;30778;53.574;7.770;2023-01-24T14:39:35;103970.28;;;1.16;45.41
45040;BME280;30778;53.574;7.770;2023-01-24T14:42:02;103969.13;;;0.58;46.21
45040;BME280;30778;53.574;7.770;2023-01-24T14:44:35;103972.38;;;0.88;45.43
45040;BME280;30778;53.574;7.770;2023-01-24T14:47:13;103968.34;;;0.94;45.25
45040;BME280;30778;53.574;7.770;2023-01-24T14:49:44;103967.38;;;0.92;45.06
45040;BME280;30778;53.574;7.770;2023-01-24T14:52:19;103966.09;;;0.83;45.44
45040;BME280;30778;53.574;7.770;2023-01-24T14:54:48;103971.84;;;0.78;45.71
45040;BME280;30778;53.574;7.770;2023-01-24T14:59:57;103975.84;;;0.89;46.04
45040;BME280;30778;53.574;7.770;2023-01-24T15:02:23;103965.84;;;0.95;45.84
45040;BME280;30778;53.574;7.770;2023-01-24T15:04:48;103969.94;;;0.92;46.25
45040;BME280;30778;53.574;7.770;2023-01-24T15:07:16;103971.59;;;0.57;46.62